Grantville, Kansas
Current Conditions -  °F | °C
As of 1:53 PM on Monday 26 Jan 2015 (Local Time) from KTOP Reporting Station
Clear Clear  
Wind Chill: 63°   Ceiling: Unl
Heat Index: 63°   Visibility: 10mi
Dew Point: 36°   Wind: 14mph
Humidity: 37%   Direction: 300°WNW
Pressure: 29.93"   Gusts: NA
Location:  39.08°N, 95.56°W
Report Text: KTOP 261953Z 30012KT 10SM CLR 17/02 A2993 RMK AO2 SLP139 T01720022
Loading
Personal Weather Stations






























Interactive Weather Map New forecast layout! Learn more

10-Day Weather Forecast

Advertisements
Track Severe Weather on mobile